KEKO/EKO METAR and TAF weather

Enter ICAO airport designator
Station Type Date Time Source
KEKO METAR 2019/10/20 17:56 UTC NOAA

KEKO 201756Z AUTO VRB04KT 10SM BKN046 06/M06 A3021 RMK AO2 SLP232 T00611061 10061 21017 50010


Station Type Date Time Source
KEKO Decoded METAR 2019/10/20 17:56 UTC NOAA

ELKO REGIONAL AIRPORT, NV, United States (KEKO) 40-50N 115-47W 1547M
Oct 20, 2019 - 01:56 PM EDT / 2019.10.20 1756 UTC
Wind: Variable at 5 MPH (4 KT):0
Visibility: 10 mile(s):0
Sky conditions: mostly cloudy
Temperature: 43.0 F (6.1 C)
Dew Point: 21.0 F (-6.1 C)
Relative Humidity: 41%
Pressure (altimeter): 30.21 in. Hg (1023 hPa)
Pressure tendency: 0.03 inches (1.0 hPa) higher than three hours ago
ob: KEKO 201756Z AUTO VRB04KT 10SM BKN046 06/M06 A3021 RMK AO2 SLP232 T00611061 10061 21017 50010
cycle: 18

Station Type Date Time Source
KEKO TAF 2019/10/20 18:22 UTC NOAA

TAF KEKO 201720Z 2018/2118 VRB03KT P6SM SCT060 BKN200
FM202000 25013G20KT P6SM BKN060
FM210200 23005KT P6SM SCT060 SCT100

Example: see airport list